Airfield :
LOGIN :

Register | Disclaimer

   EN    FR    IT 

 










Legend :    VFR   Marginal VFR   IFR   Intensive IFR   Very Intensive IFR
Visi :
Ceiling :
>= 8 km
>= 3000ft
5 to 8 km
1000 to 3000 ft
1500m to 5 km
500 to 1000 ft
800 to 1500m
200 to 500 ft
< 800m
< 200 ft
Symbols :   Thunderstorms  Fog  Heavy snow  Heavy precipitations  Wind > 20 kt
SIGMETs :     Misc.  Thunderstorms  Icing  Turbulence  Mountain Waves  Volcanic Ashes






- Airport Elevation : 499 ft
- IATA code : TLS


LFBO - Toulouse / Blagnac

CURRENT METAR :
  • 232230Z AUTO 26010KT 9999 FEW009/// SCT014/// BKN021/// ///CB 14/13 Q1008 BECMG SCT012 BKN022

EXPIRED METARs :
  • 232200Z AUTO 23010KT 9999 SCT011/// BKN023/// BKN039/// ///CB 14/13 Q1008 BECMG SCT012 BKN022
  • 232130Z AUTO 24005KT 9999 SCT020/// BKN025/// OVC048/// ///CB 15/13 Q1007 TEMPO BKN008 SCT035TCU
  • 232100Z AUTO 26004KT 220V300 9999 OVC018 15/13 Q1007 TEMPO BKN008 SCT035TCU
  • 232030Z AUTO 22006KT 9999 -RADZ OVC014 15/13 Q1006 TEMPO BKN008 SCT035TCU
  • 232000Z AUTO 19007KT 160V230 9999 BKN016/// OVC022/// ///TCU 16/13 Q1006 TEMPO BKN008 SCT035TCU

TAF AMD TAF LFBO
Valid from the 23 at 21:00 until the 25 at 00:00 UTC


232137Z 2321/2424 22008KT 9999 SCT012 BKN022
TEMPO 2321/2323 -SHRA BKN008 SCT035CB
TEMPO 2403/2407 3000 BR
TEMPO 2408/2420 -SHRA SCT013 BKN025 SCT050TCU
BECMG 2420/2422 BKN013
ATIS : +33 5 62 74 66 36



MET'MAP, your aeronautical weather chart ! - Copyright ORBIFLY December 2007 - Disclaimer

ORBIFLY MET'MAP TEAM :

Programming & Development : Alexandra Zaïnal
Concept & Development : Baudouin d'Aumeries
Co-Development & Prog : Marc-Olivier Méhu
Technical & hardware support : Manuel Goepfert

Contact : metmap@orbifly.com




SOURCES & CREDITS :

   NOAA